Time;durP1;ratioP1;P1;durP2;ratioP2;P2;SDS_P1;SDS_P2;PMS_P1;PMS_P2;Temp;Humidity;BMP_temperature;BMP_pressure;BME280_temperature;BME280_humidity;BME280_pressure;Samples;Min_cycle;Max_cycle;Signal;HPM_P1;HPM_P2
2021/12/20 00:00:11;;;;;;;4.27;3.70;;;4.00;99.90;;;;;;5094302;28;20200;-88
2021/12/20 00:02:39;;;;;;;4.18;3.20;;;4.00;99.90;;;;;;5095020;28;20200;-88
2021/12/20 00:05:09;;;;;;;5.18;4.47;;;3.90;99.90;;;;;;5093472;28;20212;-88
2021/12/20 00:07:38;;;;;;;5.70;4.13;;;3.90;99.90;;;;;;5095427;28;20220;-88
2021/12/20 00:10:08;;;;;;;3.67;3.35;;;3.80;99.90;;;;;;5094402;28;20216;-88
2021/12/20 00:12:36;;;;;;;7.18;4.32;;;3.80;99.90;;;;;;5094744;28;20235;-88
2021/12/20 00:15:06;;;;;;;4.65;4.25;;;3.80;99.90;;;;;;5094293;28;20200;-87
2021/12/20 00:17:34;;;;;;;3.75;3.45;;;3.80;99.90;;;;;;5094432;28;20254;-88
2021/12/20 00:20:04;;;;;;;4.07;3.75;;;3.80;99.90;;;;;;5093984;28;20253;-88
2021/12/20 00:22:32;;;;;;;5.22;3.58;;;3.80;99.90;;;;;;5094818;28;20238;-87
2021/12/20 00:25:01;;;;;;;4.75;3.65;;;3.80;99.90;;;;;;5094837;28;20201;-88
2021/12/20 00:27:31;;;;;;;4.80;3.93;;;3.90;99.90;;;;;;5094296;28;20224;-87
2021/12/20 00:30:00;;;;;;;4.25;3.85;;;3.90;99.90;;;;;;5093781;28;20208;-87
2021/12/20 00:32:28;;;;;;;5.07;4.53;;;3.90;99.90;;;;;;5094116;28;20235;-88
2021/12/20 00:34:56;;;;;;;4.55;3.95;;;3.90;99.90;;;;;;5094178;28;20283;-88
2021/12/20 00:40:20;;;;;;;3.35;3.05;;;4.00;99.90;;;;;;5093683;28;20260;-88
2021/12/20 00:42:53;;;;;;;3.72;3.42;;;4.00;99.90;;;;;;5094172;28;20196;-88
2021/12/20 00:45:23;;;;;;;3.00;2.80;;;4.10;99.90;;;;;;5094302;28;20216;-87
2021/12/20 00:47:51;;;;;;;2.92;2.72;;;4.10;99.90;;;;;;5094474;28;20221;-87
2021/12/20 00:50:22;;;;;;;3.22;2.92;;;4.20;99.90;;;;;;5094176;28;20212;-87
2021/12/20 00:52:51;;;;;;;3.53;3.22;;;4.20;99.90;;;;;;5094685;28;20200;-87
2021/12/20 00:55:21;;;;;;;4.75;3.97;;;4.20;99.90;;;;;;5094206;28;20205;-87
2021/12/20 00:57:52;;;;;;;3.33;3.03;;;4.10;99.90;;;;;;5094221;28;20269;-88
2021/12/20 01:00:23;;;;;;;1.70;1.60;;;4.10;99.90;;;;;;5093636;28;20204;-88
2021/12/20 01:02:52;;;;;;;5.20;3.97;;;4.10;99.90;;;;;;5094587;28;20208;-88
2021/12/20 01:05:21;;;;;;;3.72;3.42;;;4.10;99.90;;;;;;5094008;28;20200;-88
2021/12/20 01:07:50;;;;;;;3.35;3.05;;;4.10;99.90;;;;;;5093599;28;20220;-88
2021/12/20 01:10:19;;;;;;;2.78;2.58;;;4.10;99.90;;;;;;5092644;28;20265;-88
2021/12/20 01:12:49;;;;;;;3.38;3.05;;;4.10;99.90;;;;;;5093986;28;20200;-88
2021/12/20 01:15:22;;;;;;;3.53;3.03;;;4.00;99.90;;;;;;5093318;28;20341;-88
2021/12/20 01:17:51;;;;;;;4.10;3.70;;;3.90;99.90;;;;;;5093894;28;20224;-88
2021/12/20 01:20:21;;;;;;;4.45;3.65;;;3.80;99.90;;;;;;5093257;28;20249;-88
2021/12/20 01:22:51;;;;;;;2.87;2.67;;;3.80;99.90;;;;;;5093478;28;20230;-88
2021/12/20 01:25:22;;;;;;;3.38;3.08;;;3.60;99.90;;;;;;5093955;28;20208;-88
2021/12/20 01:27:51;;;;;;;3.95;3.60;;;3.50;99.90;;;;;;5093512;28;20289;-88
2021/12/20 01:30:22;;;;;;;3.70;3.40;;;3.30;99.90;;;;;;5093268;28;20247;-88
2021/12/20 01:32:51;;;;;;;4.20;3.58;;;3.20;99.90;;;;;;5093544;28;20230;-87
2021/12/20 01:35:22;;;;;;;3.50;3.20;;;3.10;99.90;;;;;;5093789;28;20204;-88
2021/12/20 01:37:52;;;;;;;4.90;4.37;;;3.00;99.90;;;;;;5093738;28;20232;-87
2021/12/20 01:40:21;;;;;;;3.60;3.30;;;3.00;99.90;;;;;;5092445;28;20220;-87
2021/12/20 01:42:54;;;;;;;3.23;2.97;;;2.90;99.90;;;;;;5093687;28;20205;-87
2021/12/20 01:45:26;;;;;;;2.77;2.57;;;2.80;99.90;;;;;;5093332;28;20228;-88
2021/12/20 01:48:02;;;;;;;2.00;1.90;;;2.70;99.90;;;;;;5093051;28;20251;-88
2021/12/20 01:53:32;;;;;;;1.13;1.13;;;2.60;99.90;;;;;;5031101;28;20281;-88
2021/12/20 01:56:02;;;;;;;1.00;1.00;;;2.60;99.90;;;;;;5014583;28;20253;-89
2021/12/20 01:58:32;;;;;;;0.77;0.77;;;2.50;99.90;;;;;;5059583;28;20252;-88
2021/12/20 02:01:20;;;;;;;2.40;0.70;;;2.50;99.90;;;;;;5093047;28;20219;-88
2021/12/20 02:03:56;;;;;;;0.67;0.63;;;2.40;99.90;;;;;;5095363;28;20212;-86
2021/12/20 02:06:30;;;;;;;0.70;0.70;;;2.40;99.90;;;;;;5103577;28;20208;-88
2021/12/20 02:09:01;;;;;;;0.87;0.87;;;2.50;99.90;;;;;;5102508;28;20212;-93
2021/12/20 02:11:30;;;;;;;0.53;0.53;;;2.50;99.90;;;;;;5093896;28;20215;-94
2021/12/20 02:13:58;;;;;;;0.50;0.50;;;2.60;99.90;;;;;;5093395;28;20204;-93
2021/12/20 02:16:29;;;;;;;0.60;0.60;;;2.60;99.90;;;;;;5093052;28;20254;-93
2021/12/20 02:18:57;;;;;;;0.93;0.93;;;2.70;99.90;;;;;;5092283;28;20251;-92
2021/12/20 02:21:28;;;;;;;0.60;0.60;;;2.70;99.90;;;;;;5093342;28;20216;-89
2021/12/20 02:23:56;;;;;;;0.73;0.73;;;2.70;99.90;;;;;;5093254;28;20208;-88
2021/12/20 02:26:25;;;;;;;0.47;0.47;;;2.60;99.90;;;;;;5092776;28;20213;-88
2021/12/20 02:28:56;;;;;;;0.73;0.73;;;2.70;99.90;;;;;;5091344;28;20220;-89
2021/12/20 02:39:45;;;;;;;0.60;0.60;;;2.70;99.90;;;;;;5091707;28;20247;-88
2021/12/20 02:42:18;;;;;;;0.80;0.80;;;2.70;99.90;;;;;;5092645;28;20208;-89
2021/12/20 02:44:48;;;;;;;1.03;0.93;;;2.70;99.90;;;;;;5092957;28;20204;-88
2021/12/20 02:47:28;;;;;;;1.00;1.00;;;2.70;99.90;;;;;;5092752;28;20227;-88
2021/12/20 02:49:57;;;;;;;3.30;1.33;;;2.80;99.90;;;;;;5092763;28;20292;-89
2021/12/20 02:52:27;;;;;;;1.37;1.27;;;2.80;99.90;;;;;;5092780;28;20261;-88
2021/12/20 02:54:56;;;;;;;1.10;1.10;;;2.80;99.90;;;;;;5093149;28;20200;-88
2021/12/20 02:57:25;;;;;;;1.20;1.10;;;2.80;99.90;;;;;;5092159;28;20250;-88
2021/12/20 02:59:53;;;;;;;1.50;1.40;;;2.70;99.90;;;;;;5091761;28;20308;-89
2021/12/20 03:02:22;;;;;;;1.10;1.10;;;2.70;99.90;;;;;;5092708;28;20212;-89
2021/12/20 03:04:52;;;;;;;1.73;1.60;;;2.70;99.90;;;;;;5092429;28;20209;-88
2021/12/20 03:07:25;;;;;;;2.35;2.13;;;2.70;99.90;;;;;;5092497;28;20236;-89
2021/12/20 03:10:01;;;;;;;1.70;1.55;;;2.70;99.90;;;;;;5092010;28;20236;-89
2021/12/20 03:12:32;;;;;;;1.73;1.63;;;2.70;99.90;;;;;;5092397;28;20329;-88
2021/12/20 03:15:04;;;;;;;1.63;1.53;;;2.70;99.90;;;;;;5092623;28;20208;-88
2021/12/20 03:17:32;;;;;;;1.70;1.60;;;2.70;99.90;;;;;;5092264;28;20248;-88
2021/12/20 03:20:00;;;;;;;2.00;1.90;;;2.80;99.90;;;;;;5091618;28;20307;-89
2021/12/20 03:22:29;;;;;;;1.45;1.35;;;2.90;99.90;;;;;;5092808;28;20196;-89
2021/12/20 03:24:59;;;;;;;1.33;1.27;;;2.90;99.90;;;;;;5092361;28;20205;-89
2021/12/20 03:27:27;;;;;;;1.90;1.63;;;2.90;99.90;;;;;;5092649;28;20229;-89
2021/12/20 03:29:56;;;;;;;2.33;1.60;;;3.00;99.90;;;;;;5091782;28;20223;-88
2021/12/20 03:32:24;;;;;;;1.00;1.00;;;3.00;99.90;;;;;;5093172;28;20201;-89
2021/12/20 03:34:53;;;;;;;1.10;1.00;;;3.00;99.90;;;;;;5093200;28;20204;-89
2021/12/20 03:37:22;;;;;;;1.33;1.27;;;3.00;99.90;;;;;;5092516;28;20220;-89
2021/12/20 03:39:50;;;;;;;1.70;1.60;;;3.10;99.90;;;;;;5094994;28;20243;-89
2021/12/20 03:42:21;;;;;;;1.97;1.67;;;3.10;99.90;;;;;;5096469;28;20200;-89
2021/12/20 03:44:49;;;;;;;1.60;1.30;;;3.20;99.90;;;;;;5096405;28;20219;-89
2021/12/20 03:47:18;;;;;;;2.05;1.42;;;3.20;99.90;;;;;;5095137;28;20224;-89
2021/12/20 03:49:46;;;;;;;1.60;1.50;;;3.20;99.90;;;;;;5095450;28;20204;-89
2021/12/20 03:52:15;;;;;;;0.98;0.98;;;3.20;99.90;;;;;;5095709;28;20205;-89
2021/12/20 03:54:43;;;;;;;1.50;1.40;;;3.20;99.90;;;;;;5095475;28;20234;-90
2021/12/20 03:57:11;;;;;;;6.22;1.83;;;3.30;99.90;;;;;;5095417;28;20228;-90
2021/12/20 03:59:42;;;;;;;1.48;0.98;;;3.30;99.90;;;;;;5094797;28;20220;-87
2021/12/20 04:02:10;;;;;;;0.98;0.93;;;3.30;99.90;;;;;;5095417;28;20258;-88
2021/12/20 04:04:39;;;;;;;1.30;1.20;;;3.30;99.90;;;;;;5095302;28;20204;-88
2021/12/20 04:07:07;;;;;;;1.60;1.42;;;3.30;99.90;;;;;;5095563;28;20251;-88
2021/12/20 04:09:35;;;;;;;2.78;2.03;;;3.30;99.90;;;;;;5095445;28;20255;-88
2021/12/20 04:12:05;;;;;;;1.27;1.10;;;3.20;99.90;;;;;;5100286;28;20208;-88
2021/12/20 04:14:33;;;;;;;1.60;1.50;;;3.30;99.90;;;;;;5100165;28;20209;-88
2021/12/20 04:17:03;;;;;;;1.38;1.25;;;3.30;99.90;;;;;;5098672;28;20292;-89
2021/12/20 04:19:32;;;;;;;1.38;1.27;;;3.30;99.90;;;;;;5115189;28;20208;-87
2021/12/20 04:22:00;;;;;;;0.95;0.95;;;3.30;99.90;;;;;;5116764;28;20208;-87
2021/12/20 04:24:29;;;;;;;1.67;1.57;;;3.30;99.90;;;;;;5104348;28;20262;-87
2021/12/20 04:26:57;;;;;;;0.90;0.80;;;3.30;99.90;;;;;;5095112;28;20225;-88
2021/12/20 04:29:27;;;;;;;1.50;1.40;;;3.30;99.90;;;;;;5094252;28;20208;-88
2021/12/20 04:31:56;;;;;;;1.40;1.30;;;3.30;99.90;;;;;;5094864;28;20208;-88
2021/12/20 04:34:26;;;;;;;1.47;1.37;;;3.30;99.90;;;;;;5094834;28;20232;-88
2021/12/20 04:36:54;;;;;;;1.40;1.30;;;3.30;99.90;;;;;;5094640;28;20220;-88
2021/12/20 04:39:27;;;;;;;2.60;1.67;;;3.30;99.90;;;;;;5094310;28;20265;-88
2021/12/20 04:41:56;;;;;;;1.33;1.23;;;3.20;99.90;;;;;;5094275;28;20297;-88
2021/12/20 04:44:24;;;;;;;1.53;1.50;;;3.20;99.90;;;;;;5094693;28;20200;-89
2021/12/20 04:46:53;;;;;;;2.43;1.53;;;3.20;99.90;;;;;;5095523;28;20224;-89
2021/12/20 04:49:24;;;;;;;1.67;1.47;;;3.20;99.90;;;;;;5094220;28;20281;-89
2021/12/20 04:51:55;;;;;;;1.30;1.20;;;3.10;99.90;;;;;;5093785;28;20230;-88
2021/12/20 04:54:24;;;;;;;1.58;1.27;;;3.10;99.90;;;;;;5094274;28;20208;-88
2021/12/20 04:56:53;;;;;;;1.25;1.17;;;3.00;99.90;;;;;;5094735;28;20285;-89
2021/12/20 04:59:21;;;;;;;1.50;1.40;;;3.00;99.90;;;;;;5093968;28;20212;-89
2021/12/20 05:01:50;;;;;;;1.60;1.50;;;3.00;99.90;;;;;;5094229;28;20212;-90
2021/12/20 05:04:18;;;;;;;1.87;1.77;;;3.00;99.90;;;;;;5094510;28;20204;-90
2021/12/20 05:06:48;;;;;;;1.93;1.77;;;2.90;99.90;;;;;;5094116;28;20208;-89
2021/12/20 05:09:19;;;;;;;1.95;1.65;;;2.90;99.90;;;;;;5093947;28;20242;-89
2021/12/20 05:11:50;;;;;;;2.13;1.97;;;2.90;99.90;;;;;;5093735;28;20196;-90
2021/12/20 05:14:19;;;;;;;1.40;1.30;;;2.90;99.90;;;;;;5093913;28;20220;-89
2021/12/20 05:16:47;;;;;;;2.70;1.97;;;3.00;99.90;;;;;;5093805;28;20204;-90
2021/12/20 05:19:16;;;;;;;1.80;1.70;;;2.90;99.90;;;;;;5093521;28;20204;-90
2021/12/20 05:21:44;;;;;;;1.55;1.35;;;2.90;99.90;;;;;;5093603;28;20220;-90
2021/12/20 05:24:13;;;;;;;1.80;1.27;;;3.00;99.90;;;;;;5094056;28;20208;-90
2021/12/20 05:26:43;;;;;;;2.93;1.40;;;3.00;99.90;;;;;;5093822;28;20265;-90
2021/12/20 05:29:11;;;;;;;1.10;1.00;;;3.10;99.90;;;;;;5093446;28;20265;-89
2021/12/20 05:31:39;;;;;;;1.20;1.10;;;3.00;99.90;;;;;;5093909;28;20293;-90
2021/12/20 05:34:08;;;;;;;2.47;1.45;;;3.00;99.90;;;;;;5093716;28;20249;-89
2021/12/20 05:36:36;;;;;;;1.47;1.37;;;3.00;99.90;;;;;;5093300;28;20200;-89
2021/12/20 05:39:05;;;;;;;2.07;1.33;;;2.90;99.90;;;;;;5093602;28;20208;-89
2021/12/20 05:41:34;;;;;;;1.80;1.47;;;2.90;99.90;;;;;;5093031;28;20349;-89
2021/12/20 05:44:04;;;;;;;1.50;1.23;;;2.90;99.90;;;;;;5093864;28;20211;-90
2021/12/20 05:46:32;;;;;;;1.10;1.10;;;2.90;99.90;;;;;;5093686;28;20240;-90
2021/12/20 05:49:01;;;;;;;1.70;1.03;;;2.80;99.90;;;;;;5092953;28;20200;-90
2021/12/20 05:51:31;;;;;;;1.00;1.00;;;2.80;99.90;;;;;;5093551;28;20204;-90
2021/12/20 05:53:59;;;;;;;0.83;0.83;;;2.90;99.90;;;;;;5093779;28;20208;-89
2021/12/20 05:56:27;;;;;;;2.37;1.37;;;2.80;99.90;;;;;;5093034;28;20200;-89
2021/12/20 05:58:56;;;;;;;1.03;1.00;;;2.90;99.90;;;;;;5092855;28;20224;-89
2021/12/20 06:01:26;;;;;;;2.10;1.33;;;2.80;99.90;;;;;;5092979;28;20251;-88
2021/12/20 06:03:55;;;;;;;1.30;1.20;;;2.80;99.90;;;;;;5093412;28;20200;-90
2021/12/20 06:06:23;;;;;;;1.20;1.10;;;2.80;99.90;;;;;;5092799;28;20201;-88
2021/12/20 06:08:52;;;;;;;1.07;0.93;;;2.80;99.90;;;;;;5092509;28;20289;-90
2021/12/20 06:11:20;;;;;;;1.30;1.20;;;2.80;99.90;;;;;;5092886;28;20205;-90
2021/12/20 06:13:48;;;;;;;1.93;1.37;;;2.80;99.90;;;;;;5093047;28;20201;-89
2021/12/20 06:16:17;;;;;;;1.57;1.47;;;2.80;99.90;;;;;;5092656;28;20250;-89
2021/12/20 06:18:47;;;;;;;1.73;1.10;;;2.70;99.90;;;;;;5092573;28;20224;-89
2021/12/20 06:21:15;;;;;;;3.90;1.37;;;2.70;99.90;;;;;;5093428;28;20274;-89
2021/12/20 06:23:44;;;;;;;1.23;1.13;;;2.80;99.90;;;;;;5093205;28;20234;-90
2021/12/20 06:26:12;;;;;;;1.48;0.95;;;2.80;99.90;;;;;;5094507;28;20233;-88
2021/12/20 06:28:41;;;;;;;2.50;1.40;;;2.70;99.90;;;;;;5103978;28;20235;-89
2021/12/20 06:31:09;;;;;;;11.87;1.80;;;2.70;99.90;;;;;;5101326;28;20257;-91
2021/12/20 06:33:38;;;;;;;0.90;0.90;;;2.70;99.90;;;;;;5093097;28;20265;-89
2021/12/20 06:36:08;;;;;;;1.30;1.20;;;2.70;99.90;;;;;;5093160;28;20230;-90
2021/12/20 06:38:43;;;;;;;3.20;1.87;;;2.70;99.90;;;;;;5092763;28;20250;-89
2021/12/20 06:41:11;;;;;;;1.50;1.30;;;2.70;99.90;;;;;;5092164;28;20216;-89
2021/12/20 06:43:40;;;;;;;1.05;0.98;;;2.60;99.90;;;;;;5092521;28;20200;-89
2021/12/20 06:46:09;;;;;;;0.90;0.90;;;2.60;99.90;;;;;;5092786;28;20209;-89
2021/12/20 06:48:37;;;;;;;1.13;1.10;;;2.70;99.90;;;;;;5092117;28;20220;-89
2021/12/20 06:51:07;;;;;;;2.00;1.10;;;2.60;99.90;;;;;;5092305;28;20249;-89
2021/12/20 06:53:36;;;;;;;1.65;0.93;;;2.70;99.90;;;;;;5092906;28;20273;-89
2021/12/20 06:56:05;;;;;;;1.30;1.20;;;2.70;99.90;;;;;;5092475;28;20226;-89
2021/12/20 06:58:33;;;;;;;1.00;0.90;;;2.70;99.90;;;;;;5092422;28;20281;-89
2021/12/20 07:01:02;;;;;;;1.20;1.10;;;2.60;99.90;;;;;;5092524;28;20285;-89
2021/12/20 07:03:30;;;;;;;1.10;0.93;;;2.70;99.90;;;;;;5092575;28;20208;-89
2021/12/20 07:05:59;;;;;;;1.90;1.13;;;2.70;99.90;;;;;;5092422;28;20204;-89
2021/12/20 07:08:29;;;;;;;2.63;1.37;;;2.70;99.90;;;;;;5092362;28;20224;-89
2021/12/20 07:10:58;;;;;;;1.13;1.03;;;2.70;99.90;;;;;;5091729;28;20258;-89
2021/12/20 07:13:26;;;;;;;0.90;0.90;;;2.70;99.90;;;;;;5093265;28;20201;-89
2021/12/20 07:15:55;;;;;;;2.53;1.27;;;2.70;99.90;;;;;;5095899;28;20209;-90
2021/12/20 07:18:23;;;;;;;1.30;1.20;;;2.80;99.90;;;;;;5096137;28;20227;-89
2021/12/20 07:20:52;;;;;;;1.40;1.27;;;2.80;99.90;;;;;;5095638;28;20201;-89
2021/12/20 07:23:21;;;;;;;1.73;1.50;;;2.70;99.90;;;;;;5095793;28;20216;-89
2021/12/20 07:25:52;;;;;;;1.13;0.97;;;2.80;99.90;;;;;;5096027;28;20204;-89
2021/12/20 07:28:21;;;;;;;0.80;0.80;;;2.80;99.90;;;;;;5096456;28;20227;-89
2021/12/20 07:30:50;;;;;;;1.48;1.20;;;2.80;99.90;;;;;;5095523;28;20208;-89
2021/12/20 07:33:20;;;;;;;1.83;1.30;;;2.80;99.90;;;;;;5095901;28;20279;-89
2021/12/20 07:35:51;;;;;;;1.23;1.10;;;2.90;99.90;;;;;;5095844;28;20204;-89
2021/12/20 07:38:20;;;;;;;3.25;1.60;;;2.80;99.90;;;;;;5096177;28;20286;-89
2021/12/20 07:40:51;;;;;;;1.50;1.23;;;2.80;99.90;;;;;;5095542;28;20196;-89
2021/12/20 07:43:20;;;;;;;2.83;1.30;;;2.80;99.90;;;;;;5095397;28;20221;-88
2021/12/20 07:45:48;;;;;;;3.03;1.93;;;2.80;99.90;;;;;;5095783;28;20204;-89
2021/12/20 07:48:19;;;;;;;3.43;1.53;;;2.80;99.90;;;;;;5095734;28;20224;-89
2021/12/20 07:50:49;;;;;;;1.50;1.30;;;2.80;99.90;;;;;;5095086;28;20204;-88
2021/12/20 07:53:18;;;;;;;1.15;1.10;;;2.80;99.90;;;;;;5095531;28;20210;-88
2021/12/20 07:55:46;;;;;;;2.20;1.13;;;2.80;99.90;;;;;;5096852;28;20204;-88
2021/12/20 07:58:16;;;;;;;1.55;1.42;;;2.90;99.90;;;;;;5098173;28;20225;-88
2021/12/20 08:00:45;;;;;;;1.60;1.30;;;2.80;99.90;;;;;;5098055;28;20208;-89
2021/12/20 08:03:14;;;;;;;1.80;1.20;;;2.90;99.90;;;;;;5098134;28;20228;-88
2021/12/20 08:05:42;;;;;;;1.88;1.50;;;2.80;99.90;;;;;;5095616;28;20226;-89
2021/12/20 08:08:11;;;;;;;1.50;1.40;;;2.80;99.90;;;;;;5095238;28;20224;-88
2021/12/20 08:10:40;;;;;;;2.23;1.60;;;2.80;99.90;;;;;;5094780;28;20212;-89
2021/12/20 08:13:09;;;;;;;2.37;1.70;;;2.80;99.90;;;;;;5095318;28;20196;-89
2021/12/20 08:15:39;;;;;;;1.83;1.33;;;2.80;99.90;;;;;;5094845;28;20208;-88
2021/12/20 08:18:07;;;;;;;1.35;1.25;;;2.90;99.90;;;;;;5094967;28;20220;-88
2021/12/20 08:20:36;;;;;;;2.65;1.52;;;2.90;99.90;;;;;;5094705;28;20258;-89
2021/12/20 08:23:05;;;;;;;1.20;0.97;;;2.90;99.90;;;;;;5094744;28;20220;-89
2021/12/20 08:25:35;;;;;;;1.10;1.00;;;2.90;99.90;;;;;;5094170;28;20213;-89
2021/12/20 08:28:04;;;;;;;1.37;1.27;;;2.90;99.90;;;;;;5095007;28;20232;-88
2021/12/20 08:30:33;;;;;;;3.30;1.77;;;2.90;99.90;;;;;;5094701;28;20204;-88
2021/12/20 08:33:05;;;;;;;2.07;1.73;;;2.90;99.90;;;;;;5097393;28;20200;-89
2021/12/20 08:35:34;;;;;;;28.02;1.48;;;3.00;99.90;;;;;;5097372;28;20204;-89
2021/12/20 08:38:02;;;;;;;1.53;1.43;;;3.00;99.90;;;;;;5110754;28;20232;-86
2021/12/20 08:40:32;;;;;;;2.42;1.83;;;3.00;99.90;;;;;;5109601;28;20208;-86
2021/12/20 08:43:01;;;;;;;2.23;1.40;;;3.00;99.90;;;;;;5103704;28;20270;-89
2021/12/20 08:45:29;;;;;;;4.60;1.97;;;3.00;99.90;;;;;;5095124;28;20232;-89
2021/12/20 08:47:58;;;;;;;1.70;1.47;;;3.10;99.90;;;;;;5094570;28;20232;-88
2021/12/20 08:50:28;;;;;;;2.40;1.70;;;3.10;99.90;;;;;;5093752;28;20224;-88
2021/12/20 08:52:57;;;;;;;3.42;1.67;;;3.10;99.90;;;;;;5094453;28;20204;-88
2021/12/20 08:55:26;;;;;;;3.45;1.60;;;3.10;99.90;;;;;;5094449;28;20208;-88
2021/12/20 08:57:55;;;;;;;1.57;1.30;;;3.10;99.90;;;;;;5093973;28;20227;-89
2021/12/20 09:00:27;;;;;;;1.67;1.42;;;3.10;99.90;;;;;;5093893;28;20336;-89
2021/12/20 09:02:57;;;;;;;2.40;1.60;;;3.10;99.90;;;;;;5094216;28;20220;-89
2021/12/20 09:05:29;;;;;;;1.83;1.27;;;3.10;99.90;;;;;;5094355;28;20287;-89
2021/12/20 09:08:00;;;;;;;2.97;1.97;;;3.20;99.90;;;;;;5094223;28;20224;-88
2021/12/20 09:10:31;;;;;;;2.58;1.63;;;3.20;99.90;;;;;;5093699;28;20223;-88
2021/12/20 09:13:00;;;;;;;1.40;1.30;;;3.20;99.90;;;;;;5093849;28;20200;-88
2021/12/20 09:15:30;;;;;;;2.17;1.43;;;3.20;99.90;;;;;;5093673;28;20208;-88
2021/12/20 09:17:59;;;;;;;1.55;1.45;;;3.20;99.90;;;;;;5093934;28;20277;-89
2021/12/20 09:20:30;;;;;;;1.20;1.10;;;3.20;99.90;;;;;;5093232;28;20212;-88
2021/12/20 09:23:04;;;;;;;5.47;1.10;;;3.20;99.90;;;;;;5093383;28;20220;-88
2021/12/20 09:25:34;;;;;;;2.05;1.85;;;3.20;99.90;;;;;;5093788;28;20208;-88
2021/12/20 09:28:05;;;;;;;2.05;1.25;;;3.30;99.90;;;;;;5093710;28;20228;-88
2021/12/20 09:30:33;;;;;;;1.10;1.00;;;3.30;99.90;;;;;;5093405;28;20216;-88
2021/12/20 09:33:02;;;;;;;2.33;1.50;;;3.40;99.90;;;;;;5093858;28;20279;-88
2021/12/20 09:35:32;;;;;;;1.67;1.48;;;3.30;99.90;;;;;;5093181;28;20211;-89
2021/12/20 09:38:01;;;;;;;2.92;1.70;;;3.40;99.90;;;;;;5093000;28;20224;-88
2021/12/20 09:40:36;;;;;;;1.73;1.47;;;3.40;99.90;;;;;;5092906;28;20234;-88
2021/12/20 09:43:08;;;;;;;2.08;1.65;;;3.40;99.90;;;;;;5093421;28;20223;-88
2021/12/20 09:45:38;;;;;;;1.38;1.30;;;3.50;99.90;;;;;;5093369;28;20208;-89
2021/12/20 09:48:07;;;;;;;2.10;1.33;;;3.50;99.90;;;;;;5093237;28;20242;-89
2021/12/20 09:50:37;;;;;;;1.00;1.00;;;3.60;99.90;;;;;;5092971;28;20208;-89
2021/12/20 09:53:07;;;;;;;1.55;1.45;;;3.70;99.90;;;;;;5093278;28;20272;-89
2021/12/20 09:55:36;;;;;;;2.73;1.73;;;3.70;99.90;;;;;;5093184;28;20233;-89
2021/12/20 09:58:06;;;;;;;3.15;1.85;;;3.80;99.90;;;;;;5093344;28;20228;-89
2021/12/20 10:00:35;;;;;;;2.00;1.55;;;3.80;99.90;;;;;;5092728;28;20236;-89
2021/12/20 10:03:04;;;;;;;3.13;1.90;;;4.00;99.90;;;;;;5092971;28;20247;-89
2021/12/20 10:05:34;;;;;;;1.27;1.17;;;4.00;99.90;;;;;;5092929;28;20290;-89
2021/12/20 10:08:13;;;;;;;1.67;1.45;;;4.10;99.90;;;;;;5092890;28;20224;-90
2021/12/20 10:10:44;;;;;;;1.23;1.10;;;4.10;99.90;;;;;;5092781;28;20216;-90
2021/12/20 10:13:21;;;;;;;1.15;1.10;;;4.00;99.90;;;;;;5093152;28;20204;-89
2021/12/20 10:15:50;;;;;;;0.70;0.70;;;3.90;99.90;;;;;;5092681;28;20200;-90
2021/12/20 10:18:19;;;;;;;2.38;1.23;;;3.90;99.90;;;;;;5092674;28;20228;-90
2021/12/20 10:20:51;;;;;;;0.90;0.90;;;4.10;99.90;;;;;;5092079;28;20287;-89
2021/12/20 10:23:23;;;;;;;1.85;1.27;;;4.20;99.90;;;;;;5092780;28;20228;-89
2021/12/20 10:25:53;;;;;;;5.10;1.25;;;4.50;99.90;;;;;;5093221;28;20192;-90
2021/12/20 10:28:34;;;;;;;1.27;1.17;;;4.50;99.90;;;;;;5092454;28;20307;-90
2021/12/20 10:31:06;;;;;;;1.80;1.25;;;4.40;99.90;;;;;;5092528;28;20234;-90
2021/12/20 10:33:35;;;;;;;1.30;1.08;;;4.40;99.90;;;;;;5092869;28;20270;-89
2021/12/20 10:36:06;;;;;;;1.02;0.93;;;4.30;99.90;;;;;;5092423;28;20204;-89
2021/12/20 10:38:38;;;;;;;1.40;1.30;;;4.20;99.90;;;;;;5092747;28;20228;-90
2021/12/20 10:41:14;;;;;;;1.40;1.00;;;4.20;99.90;;;;;;5092026;28;20204;-90
2021/12/20 10:43:50;;;;;;;2.05;1.35;;;4.20;99.90;;;;;;5096086;28;20228;-88
2021/12/20 10:46:20;;;;;;;2.63;0.98;;;4.10;99.90;;;;;;5099011;28;20257;-90
2021/12/20 10:48:50;;;;;;;2.20;1.30;;;4.00;99.90;;;;;;5097098;28;20253;-89
2021/12/20 10:51:22;;;;;;;2.17;1.00;;;4.10;99.90;;;;;;5096910;28;20242;-90
2021/12/20 10:53:58;;;;;;;2.45;1.20;;;4.00;99.90;;;;;;5097158;28;20261;-90
2021/12/20 10:56:29;;;;;;;1.48;1.10;;;4.00;99.90;;;;;;5096796;28;20200;-90
2021/12/20 10:58:59;;;;;;;1.00;1.00;;;3.90;99.90;;;;;;5096003;28;20252;-90
2021/12/20 11:02:01;;;;;;;1.45;1.35;;;4.00;99.90;;;;;;5096811;28;20204;-89
2021/12/20 11:04:35;;;;;;;1.42;1.02;;;4.00;99.90;;;;;;5096393;28;20234;-90
2021/12/20 11:09:54;;;;;;;1.08;1.05;;;3.90;99.90;;;;;;5095325;28;20234;-90
2021/12/20 11:12:26;;;;;;;0.90;0.85;;;3.90;99.90;;;;;;5096239;28;20204;-89
2021/12/20 11:14:57;;;;;;;2.15;1.50;;;4.00;99.90;;;;;;5096505;28;20204;-90
2021/12/20 11:17:25;;;;;;;1.40;1.10;;;3.90;99.90;;;;;;5096506;28;20228;-90
2021/12/20 11:19:56;;;;;;;1.27;0.82;;;3.80;99.90;;;;;;5095784;28;20235;-90
2021/12/20 11:22:26;;;;;;;1.50;1.40;;;3.90;99.90;;;;;;5096283;28;20266;-90
2021/12/20 11:24:58;;;;;;;1.33;1.23;;;3.90;99.90;;;;;;5096402;28;20228;-91
2021/12/20 11:27:30;;;;;;;0.90;0.90;;;3.90;99.90;;;;;;5096306;28;20290;-90
2021/12/20 11:30:08;;;;;;;1.20;1.08;;;4.00;99.90;;;;;;5096002;28;20204;-91
2021/12/20 11:32:38;;;;;;;2.35;1.20;;;3.90;99.90;;;;;;5095891;28;20204;-90
2021/12/20 11:35:09;;;;;;;1.40;1.02;;;3.90;99.90;;;;;;5095868;28;20219;-91
2021/12/20 11:37:37;;;;;;;2.85;1.77;;;3.80;99.90;;;;;;5095791;28;20293;-91
2021/12/20 11:40:11;;;;;;;2.45;0.82;;;3.90;99.90;;;;;;5095601;28;20238;-91
2021/12/20 11:42:39;;;;;;;1.02;1.02;;;3.90;99.90;;;;;;5096102;28;20231;-91
2021/12/20 11:45:12;;;;;;;1.00;1.00;;;3.80;99.90;;;;;;5095534;28;20243;-91
2021/12/20 11:47:47;;;;;;;1.63;1.42;;;3.90;99.90;;;;;;5095416;28;20264;-91
2021/12/20 11:50:18;;;;;;;3.35;1.40;;;3.90;99.90;;;;;;5095307;28;20226;-91
2021/12/20 11:52:48;;;;;;;1.30;1.20;;;3.90;99.90;;;;;;5095489;28;20205;-90
2021/12/20 11:55:21;;;;;;;1.70;1.00;;;3.80;99.90;;;;;;5095875;28;20223;-91
2021/12/20 11:57:51;;;;;;;5.13;1.43;;;3.80;99.90;;;;;;5095663;28;20228;-91
2021/12/20 12:00:27;;;;;;;2.53;1.13;;;3.80;99.90;;;;;;5094863;28;20280;-92
2021/12/20 12:03:03;;;;;;;1.10;1.02;;;3.80;99.90;;;;;;5095257;28;20211;-91
2021/12/20 12:05:48;;;;;;;3.22;1.23;;;3.80;99.90;;;;;;5094941;28;20228;-90
2021/12/20 12:08:32;;;;;;;1.15;1.08;;;3.80;99.90;;;;;;5095355;28;20235;-91
2021/12/20 12:11:31;;;;;;;2.42;1.63;;;3.80;99.90;;;;;;5094783;28;20219;-91
2021/12/20 12:14:33;;;;;;;1.25;1.15;;;3.80;99.90;;;;;;5095250;28;20209;-90
2021/12/20 12:17:05;;;;;;;1.23;1.17;;;3.80;99.90;;;;;;5094618;28;20220;-91
2021/12/20 12:19:47;;;;;;;1.10;1.10;;;3.80;99.90;;;;;;5104545;28;20211;-89
2021/12/20 12:22:36;;;;;;;1.50;0.93;;;3.80;99.90;;;;;;5104429;28;20220;-89
2021/12/20 12:25:07;;;;;;;4.68;1.13;;;3.70;99.90;;;;;;5101632;28;20216;-90
2021/12/20 12:27:40;;;;;;;2.92;1.10;;;3.70;99.90;;;;;;5101612;28;20228;-89
2021/12/20 12:30:34;;;;;;;1.30;1.05;;;3.70;99.90;;;;;;5094958;28;20214;-90
2021/12/20 12:33:47;;;;;;;1.33;1.17;;;3.80;99.90;;;;;;5095093;28;20273;-90
2021/12/20 12:36:31;;;;;;;1.23;0.88;;;3.70;99.90;;;;;;5066842;28;20212;-90
2021/12/20 12:39:04;;;;;;;0.95;0.93;;;3.70;99.90;;;;;;5094521;28;20212;-90
2021/12/20 12:41:44;;;;;;;0.98;0.98;;;3.70;99.90;;;;;;5096457;28;20211;-90
2021/12/20 12:44:24;;;;;;;1.75;0.98;;;3.60;99.90;;;;;;5097593;28;20267;-89
2021/12/20 12:47:03;;;;;;;1.20;1.10;;;3.60;99.90;;;;;;5097353;28;20224;-89
2021/12/20 12:49:50;;;;;;;0.68;0.68;;;3.60;99.90;;;;;;5106552;28;20211;-87
2021/12/20 12:52:37;;;;;;;1.15;1.02;;;3.60;99.90;;;;;;5109709;28;20223;-85
2021/12/20 12:55:30;;;;;;;1.45;1.20;;;3.60;99.90;;;;;;5101331;28;20216;-89
2021/12/20 12:58:18;;;;;;;1.30;1.20;;;3.60;99.90;;;;;;5094141;28;20239;-89
2021/12/20 13:00:58;;;;;;;3.10;1.73;;;3.60;99.90;;;;;;5094062;28;20265;-89
2021/12/20 13:03:29;;;;;;;3.40;2.25;;;3.70;99.90;;;;;;5094278;28;20203;-89
2021/12/20 13:05:58;;;;;;;1.50;1.00;;;3.60;99.90;;;;;;5093742;28;20228;-89
2021/12/20 13:08:27;;;;;;;1.48;1.25;;;3.70;99.90;;;;;;5094154;28;20224;-89
2021/12/20 13:10:55;;;;;;;1.20;1.10;;;3.70;99.90;;;;;;5093133;28;20208;-89
2021/12/20 13:13:27;;;;;;;2.53;1.42;;;3.70;99.90;;;;;;5094071;28;20269;-89
2021/12/20 13:16:02;;;;;;;1.48;1.38;;;3.80;99.90;;;;;;5093799;28;20200;-89
2021/12/20 13:18:34;;;;;;;2.80;1.77;;;3.80;99.90;;;;;;5093601;28;20307;-89
2021/12/20 13:21:06;;;;;;;1.25;1.13;;;3.80;99.90;;;;;;5093350;28;20267;-89
2021/12/20 13:23:37;;;;;;;2.75;1.10;;;3.70;99.90;;;;;;5093615;28;20222;-89
2021/12/20 13:26:09;;;;;;;1.63;1.52;;;3.80;99.90;;;;;;5093887;28;20220;-89
2021/12/20 13:28:39;;;;;;;1.55;1.30;;;3.70;99.90;;;;;;5093430;28;20224;-89
2021/12/20 13:31:11;;;;;;;1.52;1.40;;;3.60;99.90;;;;;;5093506;28;20211;-89
2021/12/20 13:33:41;;;;;;;1.50;1.40;;;3.60;99.90;;;;;;5093580;28;20204;-89